sensor_id;sensor_type;location;lat;lon;timestamp;P1;durP1;ratioP1;P2;durP2;ratioP2
31368;SDS011;18004;48.416;10.066;2023-09-18T00:01:31;2.55;;;1.75;;
31368;SDS011;18004;48.416;10.066;2023-09-18T00:03:56;2.90;;;1.77;;
31368;SDS011;18004;48.416;10.066;2023-09-18T00:06:23;2.47;;;1.58;;
31368;SDS011;18004;48.416;10.066;2023-09-18T00:08:50;2.97;;;1.90;;
31368;SDS011;18004;48.416;10.066;2023-09-18T00:11:16;3.40;;;2.15;;
31368;SDS011;18004;48.416;10.066;2023-09-18T00:13:42;2.17;;;1.50;;
31368;SDS011;18004;48.416;10.066;2023-09-18T00:16:13;4.72;;;2.30;;
31368;SDS011;18004;48.416;10.066;2023-09-18T00:18:39;2.47;;;1.98;;
31368;SDS011;18004;48.416;10.066;2023-09-18T00:21:06;3.28;;;1.63;;
31368;SDS011;18004;48.416;10.066;2023-09-18T00:23:32;2.38;;;1.70;;
31368;SDS011;18004;48.416;10.066;2023-09-18T00:26:00;1.92;;;1.60;;
31368;SDS011;18004;48.416;10.066;2023-09-18T00:28:26;2.75;;;1.60;;
31368;SDS011;18004;48.416;10.066;2023-09-18T00:30:51;3.17;;;1.98;;
31368;SDS011;18004;48.416;10.066;2023-09-18T00:33:17;2.20;;;1.73;;
31368;SDS011;18004;48.416;10.066;2023-09-18T00:35:47;4.45;;;1.63;;
31368;SDS011;18004;48.416;10.066;2023-09-18T00:38:14;3.97;;;2.08;;
31368;SDS011;18004;48.416;10.066;2023-09-18T00:40:40;2.15;;;1.52;;
31368;SDS011;18004;48.416;10.066;2023-09-18T00:43:06;4.50;;;1.80;;
31368;SDS011;18004;48.416;10.066;2023-09-18T00:45:32;2.78;;;2.10;;
31368;SDS011;18004;48.416;10.066;2023-09-18T00:47:59;1.70;;;1.52;;
31368;SDS011;18004;48.416;10.066;2023-09-18T00:50:25;2.42;;;2.00;;
31368;SDS011;18004;48.416;10.066;2023-09-18T00:52:51;3.05;;;1.73;;
31368;SDS011;18004;48.416;10.066;2023-09-18T00:55:17;2.33;;;1.70;;
31368;SDS011;18004;48.416;10.066;2023-09-18T00:57:44;4.35;;;2.17;;
31368;SDS011;18004;48.416;10.066;2023-09-18T01:00:11;2.63;;;1.83;;
31368;SDS011;18004;48.416;10.066;2023-09-18T01:02:42;2.47;;;1.75;;
31368;SDS011;18004;48.416;10.066;2023-09-18T01:05:10;4.60;;;2.10;;
31368;SDS011;18004;48.416;10.066;2023-09-18T01:07:36;2.85;;;2.03;;
31368;SDS011;18004;48.416;10.066;2023-09-18T01:10:02;2.47;;;2.13;;
31368;SDS011;18004;48.416;10.066;2023-09-18T01:12:32;2.08;;;1.67;;
31368;SDS011;18004;48.416;10.066;2023-09-18T01:15:04;2.60;;;1.88;;
31368;SDS011;18004;48.416;10.066;2023-09-18T01:17:49;3.58;;;2.50;;
31368;SDS011;18004;48.416;10.066;2023-09-18T01:20:16;2.90;;;2.28;;
31368;SDS011;18004;48.416;10.066;2023-09-18T01:22:42;2.97;;;2.00;;
31368;SDS011;18004;48.416;10.066;2023-09-18T01:25:08;2.25;;;1.83;;
31368;SDS011;18004;48.416;10.066;2023-09-18T01:27:34;2.40;;;1.92;;
31368;SDS011;18004;48.416;10.066;2023-09-18T01:30:00;4.70;;;2.20;;
31368;SDS011;18004;48.416;10.066;2023-09-18T01:32:27;5.95;;;2.50;;
31368;SDS011;18004;48.416;10.066;2023-09-18T01:34:57;4.20;;;2.30;;
31368;SDS011;18004;48.416;10.066;2023-09-18T01:37:26;3.60;;;2.30;;
31368;SDS011;18004;48.416;10.066;2023-09-18T01:39:54;5.47;;;2.53;;
31368;SDS011;18004;48.416;10.066;2023-09-18T01:42:23;2.20;;;2.00;;
31368;SDS011;18004;48.416;10.066;2023-09-18T01:44:49;4.50;;;2.55;;
31368;SDS011;18004;48.416;10.066;2023-09-18T01:47:18;4.63;;;2.00;;
31368;SDS011;18004;48.416;10.066;2023-09-18T01:49:46;3.05;;;2.40;;
31368;SDS011;18004;48.416;10.066;2023-09-18T01:52:11;4.10;;;2.58;;
31368;SDS011;18004;48.416;10.066;2023-09-18T01:54:38;2.80;;;2.28;;
31368;SDS011;18004;48.416;10.066;2023-09-18T01:57:04;3.90;;;2.80;;
31368;SDS011;18004;48.416;10.066;2023-09-18T01:59:32;4.93;;;2.28;;
31368;SDS011;18004;48.416;10.066;2023-09-18T02:01:58;3.55;;;2.25;;
31368;SDS011;18004;48.416;10.066;2023-09-18T02:04:25;4.15;;;2.83;;
31368;SDS011;18004;48.416;10.066;2023-09-18T02:06:52;2.70;;;2.13;;
31368;SDS011;18004;48.416;10.066;2023-09-18T02:09:18;4.38;;;2.53;;
31368;SDS011;18004;48.416;10.066;2023-09-18T02:11:45;4.00;;;2.30;;
31368;SDS011;18004;48.416;10.066;2023-09-18T02:14:12;2.65;;;2.17;;
31368;SDS011;18004;48.416;10.066;2023-09-18T02:16:39;3.03;;;2.58;;
31368;SDS011;18004;48.416;10.066;2023-09-18T02:19:09;4.93;;;2.97;;
31368;SDS011;18004;48.416;10.066;2023-09-18T02:21:36;4.03;;;2.42;;
31368;SDS011;18004;48.416;10.066;2023-09-18T02:24:02;4.13;;;2.20;;
31368;SDS011;18004;48.416;10.066;2023-09-18T02:26:28;4.90;;;2.97;;
31368;SDS011;18004;48.416;10.066;2023-09-18T02:28:57;5.38;;;3.50;;
31368;SDS011;18004;48.416;10.066;2023-09-18T02:31:24;3.53;;;2.75;;
31368;SDS011;18004;48.416;10.066;2023-09-18T02:33:50;5.68;;;3.05;;
31368;SDS011;18004;48.416;10.066;2023-09-18T02:36:16;4.47;;;2.50;;
31368;SDS011;18004;48.416;10.066;2023-09-18T02:38:41;2.95;;;2.60;;
31368;SDS011;18004;48.416;10.066;2023-09-18T02:41:08;3.67;;;3.28;;
31368;SDS011;18004;48.416;10.066;2023-09-18T02:43:34;5.18;;;2.78;;
31368;SDS011;18004;48.416;10.066;2023-09-18T02:46:03;5.97;;;2.67;;
31368;SDS011;18004;48.416;10.066;2023-09-18T02:48:30;3.83;;;3.10;;
31368;SDS011;18004;48.416;10.066;2023-09-18T02:50:56;4.85;;;2.72;;
31368;SDS011;18004;48.416;10.066;2023-09-18T02:53:24;6.07;;;2.80;;
31368;SDS011;18004;48.416;10.066;2023-09-18T02:55:51;5.80;;;3.00;;
31368;SDS011;18004;48.416;10.066;2023-09-18T02:58:18;5.78;;;2.80;;
31368;SDS011;18004;48.416;10.066;2023-09-18T03:00:46;4.32;;;3.15;;
31368;SDS011;18004;48.416;10.066;2023-09-18T03:03:13;5.22;;;3.28;;
31368;SDS011;18004;48.416;10.066;2023-09-18T03:05:39;3.90;;;2.90;;
31368;SDS011;18004;48.416;10.066;2023-09-18T03:08:06;3.53;;;2.97;;
31368;SDS011;18004;48.416;10.066;2023-09-18T03:10:34;5.97;;;3.28;;
31368;SDS011;18004;48.416;10.066;2023-09-18T03:13:04;4.53;;;2.90;;
31368;SDS011;18004;48.416;10.066;2023-09-18T03:15:31;4.47;;;2.88;;
31368;SDS011;18004;48.416;10.066;2023-09-18T03:17:57;3.67;;;3.05;;
31368;SDS011;18004;48.416;10.066;2023-09-18T03:20:27;2.95;;;2.33;;
31368;SDS011;18004;48.416;10.066;2023-09-18T03:22:58;3.75;;;2.90;;
31368;SDS011;18004;48.416;10.066;2023-09-18T03:27:52;5.38;;;3.15;;
31368;SDS011;18004;48.416;10.066;2023-09-18T03:30:19;3.20;;;2.40;;
31368;SDS011;18004;48.416;10.066;2023-09-18T03:32:45;6.05;;;3.25;;
31368;SDS011;18004;48.416;10.066;2023-09-18T03:35:11;7.03;;;2.80;;
31368;SDS011;18004;48.416;10.066;2023-09-18T03:37:46;4.05;;;2.72;;
31368;SDS011;18004;48.416;10.066;2023-09-18T03:40:13;3.50;;;2.97;;
31368;SDS011;18004;48.416;10.066;2023-09-18T03:42:39;4.85;;;2.67;;
31368;SDS011;18004;48.416;10.066;2023-09-18T03:45:05;7.10;;;2.70;;
31368;SDS011;18004;48.416;10.066;2023-09-18T03:47:36;5.35;;;2.95;;
31368;SDS011;18004;48.416;10.066;2023-09-18T03:50:06;2.83;;;2.38;;
31368;SDS011;18004;48.416;10.066;2023-09-18T03:52:36;3.72;;;2.47;;
31368;SDS011;18004;48.416;10.066;2023-09-18T03:55:04;4.30;;;2.47;;
31368;SDS011;18004;48.416;10.066;2023-09-18T03:57:30;3.72;;;2.60;;
31368;SDS011;18004;48.416;10.066;2023-09-18T03:59:56;5.97;;;3.40;;
31368;SDS011;18004;48.416;10.066;2023-09-18T04:02:23;5.32;;;3.15;;
31368;SDS011;18004;48.416;10.066;2023-09-18T04:04:49;3.67;;;2.92;;
31368;SDS011;18004;48.416;10.066;2023-09-18T04:07:15;3.78;;;2.90;;
31368;SDS011;18004;48.416;10.066;2023-09-18T04:09:42;3.15;;;2.58;;
31368;SDS011;18004;48.416;10.066;2023-09-18T04:12:08;8.57;;;4.70;;
31368;SDS011;18004;48.416;10.066;2023-09-18T04:14:34;5.05;;;3.45;;
31368;SDS011;18004;48.416;10.066;2023-09-18T04:17:01;4.22;;;2.95;;
31368;SDS011;18004;48.416;10.066;2023-09-18T04:19:27;5.80;;;2.95;;
31368;SDS011;18004;48.416;10.066;2023-09-18T04:21:54;5.65;;;3.50;;
31368;SDS011;18004;48.416;10.066;2023-09-18T04:24:20;4.45;;;3.20;;
31368;SDS011;18004;48.416;10.066;2023-09-18T04:26:46;3.58;;;3.03;;
31368;SDS011;18004;48.416;10.066;2023-09-18T04:29:12;4.55;;;2.90;;
31368;SDS011;18004;48.416;10.066;2023-09-18T04:31:38;5.28;;;3.30;;
31368;SDS011;18004;48.416;10.066;2023-09-18T04:34:03;6.35;;;3.50;;
31368;SDS011;18004;48.416;10.066;2023-09-18T04:36:29;9.82;;;3.78;;
31368;SDS011;18004;48.416;10.066;2023-09-18T04:38:56;5.40;;;3.75;;
31368;SDS011;18004;48.416;10.066;2023-09-18T04:41:22;9.68;;;4.63;;
31368;SDS011;18004;48.416;10.066;2023-09-18T04:43:48;10.32;;;3.95;;
31368;SDS011;18004;48.416;10.066;2023-09-18T04:46:14;4.72;;;3.72;;
31368;SDS011;18004;48.416;10.066;2023-09-18T04:48:41;6.03;;;3.90;;
31368;SDS011;18004;48.416;10.066;2023-09-18T04:51:07;6.20;;;3.65;;
31368;SDS011;18004;48.416;10.066;2023-09-18T04:53:32;5.20;;;3.28;;
31368;SDS011;18004;48.416;10.066;2023-09-18T04:55:58;6.50;;;3.38;;
31368;SDS011;18004;48.416;10.066;2023-09-18T04:58:25;6.18;;;4.10;;
31368;SDS011;18004;48.416;10.066;2023-09-18T05:00:54;6.78;;;3.97;;
31368;SDS011;18004;48.416;10.066;2023-09-18T05:03:23;6.85;;;4.00;;
31368;SDS011;18004;48.416;10.066;2023-09-18T05:05:49;4.38;;;3.75;;
31368;SDS011;18004;48.416;10.066;2023-09-18T05:08:15;4.88;;;3.67;;
31368;SDS011;18004;48.416;10.066;2023-09-18T05:10:41;12.48;;;4.50;;
31368;SDS011;18004;48.416;10.066;2023-09-18T05:13:08;5.13;;;3.72;;
31368;SDS011;18004;48.416;10.066;2023-09-18T05:15:37;8.68;;;4.15;;
31368;SDS011;18004;48.416;10.066;2023-09-18T05:18:02;7.88;;;4.15;;
31368;SDS011;18004;48.416;10.066;2023-09-18T05:20:29;11.48;;;4.55;;
31368;SDS011;18004;48.416;10.066;2023-09-18T05:22:56;13.60;;;3.90;;
31368;SDS011;18004;48.416;10.066;2023-09-18T05:25:26;7.22;;;4.13;;
31368;SDS011;18004;48.416;10.066;2023-09-18T05:27:57;7.15;;;4.70;;
31368;SDS011;18004;48.416;10.066;2023-09-18T05:30:32;5.63;;;3.80;;
31368;SDS011;18004;48.416;10.066;2023-09-18T05:33:06;7.10;;;4.35;;
31368;SDS011;18004;48.416;10.066;2023-09-18T05:35:33;5.97;;;4.30;;
31368;SDS011;18004;48.416;10.066;2023-09-18T05:38:04;9.25;;;5.07;;
31368;SDS011;18004;48.416;10.066;2023-09-18T05:40:30;8.45;;;4.13;;
31368;SDS011;18004;48.416;10.066;2023-09-18T05:42:57;5.78;;;3.88;;
31368;SDS011;18004;48.416;10.066;2023-09-18T05:45:23;8.75;;;4.35;;
31368;SDS011;18004;48.416;10.066;2023-09-18T05:47:49;7.28;;;4.28;;
31368;SDS011;18004;48.416;10.066;2023-09-18T05:50:15;4.97;;;3.72;;
31368;SDS011;18004;48.416;10.066;2023-09-18T05:52:51;7.25;;;4.03;;
31368;SDS011;18004;48.416;10.066;2023-09-18T05:55:17;5.22;;;4.18;;
31368;SDS011;18004;48.416;10.066;2023-09-18T05:57:42;5.30;;;4.03;;
31368;SDS011;18004;48.416;10.066;2023-09-18T06:00:08;5.70;;;3.83;;
31368;SDS011;18004;48.416;10.066;2023-09-18T06:02:38;5.90;;;4.25;;
31368;SDS011;18004;48.416;10.066;2023-09-18T06:05:05;11.63;;;3.65;;
31368;SDS011;18004;48.416;10.066;2023-09-18T06:07:31;5.60;;;3.35;;
31368;SDS011;18004;48.416;10.066;2023-09-18T06:09:58;4.55;;;3.25;;
31368;SDS011;18004;48.416;10.066;2023-09-18T06:12:24;11.23;;;4.68;;
31368;SDS011;18004;48.416;10.066;2023-09-18T06:14:51;6.72;;;3.75;;
31368;SDS011;18004;48.416;10.066;2023-09-18T06:17:17;13.68;;;4.53;;
31368;SDS011;18004;48.416;10.066;2023-09-18T06:19:44;10.80;;;3.55;;
31368;SDS011;18004;48.416;10.066;2023-09-18T06:22:10;9.63;;;4.30;;
31368;SDS011;18004;48.416;10.066;2023-09-18T06:24:36;8.75;;;3.97;;
31368;SDS011;18004;48.416;10.066;2023-09-18T06:27:03;6.40;;;3.78;;
31368;SDS011;18004;48.416;10.066;2023-09-18T06:29:29;7.00;;;3.63;;
31368;SDS011;18004;48.416;10.066;2023-09-18T06:31:56;8.23;;;3.92;;
31368;SDS011;18004;48.416;10.066;2023-09-18T06:34:22;5.70;;;3.20;;
31368;SDS011;18004;48.416;10.066;2023-09-18T06:36:47;5.80;;;3.85;;
31368;SDS011;18004;48.416;10.066;2023-09-18T06:39:14;9.18;;;3.95;;
31368;SDS011;18004;48.416;10.066;2023-09-18T06:41:40;6.63;;;4.13;;
31368;SDS011;18004;48.416;10.066;2023-09-18T06:44:06;7.40;;;3.80;;
31368;SDS011;18004;48.416;10.066;2023-09-18T06:46:32;6.43;;;4.47;;
31368;SDS011;18004;48.416;10.066;2023-09-18T06:48:57;8.15;;;4.30;;
31368;SDS011;18004;48.416;10.066;2023-09-18T06:51:25;5.35;;;4.07;;
31368;SDS011;18004;48.416;10.066;2023-09-18T06:53:52;6.05;;;3.97;;
31368;SDS011;18004;48.416;10.066;2023-09-18T06:56:20;4.55;;;3.78;;
31368;SDS011;18004;48.416;10.066;2023-09-18T06:58:45;5.57;;;4.00;;
31368;SDS011;18004;48.416;10.066;2023-09-18T07:01:17;7.72;;;4.20;;
31368;SDS011;18004;48.416;10.066;2023-09-18T07:03:44;8.48;;;4.80;;
31368;SDS011;18004;48.416;10.066;2023-09-18T07:06:13;9.02;;;6.22;;
31368;SDS011;18004;48.416;10.066;2023-09-18T07:11:09;7.10;;;5.05;;
31368;SDS011;18004;48.416;10.066;2023-09-18T07:13:35;6.18;;;4.18;;
31368;SDS011;18004;48.416;10.066;2023-09-18T07:16:04;7.20;;;3.92;;
31368;SDS011;18004;48.416;10.066;2023-09-18T07:18:31;5.72;;;3.67;;
31368;SDS011;18004;48.416;10.066;2023-09-18T07:20:56;13.57;;;4.10;;
31368;SDS011;18004;48.416;10.066;2023-09-18T07:23:22;10.00;;;5.47;;
31368;SDS011;18004;48.416;10.066;2023-09-18T07:25:48;15.30;;;6.60;;
31368;SDS011;18004;48.416;10.066;2023-09-18T07:28:13;14.45;;;7.22;;
31368;SDS011;18004;48.416;10.066;2023-09-18T07:30:45;11.38;;;8.23;;
31368;SDS011;18004;48.416;10.066;2023-09-18T07:33:12;13.52;;;9.70;;
31368;SDS011;18004;48.416;10.066;2023-09-18T07:35:41;18.52;;;12.85;;
31368;SDS011;18004;48.416;10.066;2023-09-18T07:38:07;10.30;;;7.35;;
31368;SDS011;18004;48.416;10.066;2023-09-18T07:40:33;10.13;;;8.00;;
31368;SDS011;18004;48.416;10.066;2023-09-18T07:42:59;20.15;;;10.27;;
31368;SDS011;18004;48.416;10.066;2023-09-18T07:45:25;17.17;;;12.00;;
31368;SDS011;18004;48.416;10.066;2023-09-18T07:47:50;32.22;;;21.25;;
31368;SDS011;18004;48.416;10.066;2023-09-18T07:50:16;9.98;;;6.75;;
31368;SDS011;18004;48.416;10.066;2023-09-18T07:52:43;6.22;;;3.85;;
31368;SDS011;18004;48.416;10.066;2023-09-18T07:55:09;9.40;;;3.08;;
31368;SDS011;18004;48.416;10.066;2023-09-18T07:57:34;10.50;;;3.10;;
31368;SDS011;18004;48.416;10.066;2023-09-18T08:00:18;7.53;;;2.58;;
31368;SDS011;18004;48.416;10.066;2023-09-18T08:05:11;10.70;;;4.88;;
31368;SDS011;18004;48.416;10.066;2023-09-18T08:07:37;9.38;;;4.80;;
31368;SDS011;18004;48.416;10.066;2023-09-18T08:10:03;3.75;;;2.85;;
31368;SDS011;18004;48.416;10.066;2023-09-18T08:12:33;5.93;;;3.53;;
31368;SDS011;18004;48.416;10.066;2023-09-18T08:15:00;3.83;;;2.72;;
31368;SDS011;18004;48.416;10.066;2023-09-18T08:17:25;10.98;;;3.58;;
31368;SDS011;18004;48.416;10.066;2023-09-18T08:19:51;7.65;;;3.63;;
31368;SDS011;18004;48.416;10.066;2023-09-18T08:22:18;4.88;;;3.20;;
31368;SDS011;18004;48.416;10.066;2023-09-18T08:24:48;5.75;;;2.92;;
31368;SDS011;18004;48.416;10.066;2023-09-18T08:29:43;5.90;;;3.45;;
31368;SDS011;18004;48.416;10.066;2023-09-18T08:32:10;6.28;;;3.40;;
31368;SDS011;18004;48.416;10.066;2023-09-18T08:34:36;12.15;;;4.53;;
31368;SDS011;18004;48.416;10.066;2023-09-18T08:37:02;10.68;;;4.25;;
31368;SDS011;18004;48.416;10.066;2023-09-18T08:39:31;6.43;;;4.32;;
31368;SDS011;18004;48.416;10.066;2023-09-18T08:41:58;9.15;;;3.80;;
31368;SDS011;18004;48.416;10.066;2023-09-18T08:44:29;5.93;;;3.72;;
31368;SDS011;18004;48.416;10.066;2023-09-18T08:46:55;9.95;;;3.35;;
31368;SDS011;18004;48.416;10.066;2023-09-18T08:49:24;5.50;;;2.85;;
31368;SDS011;18004;48.416;10.066;2023-09-18T08:51:50;8.25;;;2.95;;
31368;SDS011;18004;48.416;10.066;2023-09-18T08:54:18;5.63;;;2.78;;
31368;SDS011;18004;48.416;10.066;2023-09-18T08:56:45;3.70;;;2.38;;
31368;SDS011;18004;48.416;10.066;2023-09-18T08:59:10;5.85;;;3.03;;
31368;SDS011;18004;48.416;10.066;2023-09-18T09:01:38;9.75;;;3.40;;
31368;SDS011;18004;48.416;10.066;2023-09-18T09:04:04;6.65;;;2.63;;
31368;SDS011;18004;48.416;10.066;2023-09-18T09:06:30;9.35;;;3.40;;
31368;SDS011;18004;48.416;10.066;2023-09-18T09:08:56;8.93;;;3.20;;
31368;SDS011;18004;48.416;10.066;2023-09-18T09:11:22;9.25;;;2.53;;
31368;SDS011;18004;48.416;10.066;2023-09-18T09:13:50;7.93;;;2.55;;
31368;SDS011;18004;48.416;10.066;2023-09-18T09:16:38;12.48;;;2.78;;
31368;SDS011;18004;48.416;10.066;2023-09-18T09:19:04;8.52;;;2.63;;
31368;SDS011;18004;48.416;10.066;2023-09-18T09:21:40;9.75;;;2.55;;
31368;SDS011;18004;48.416;10.066;2023-09-18T09:24:09;4.28;;;2.33;;
31368;SDS011;18004;48.416;10.066;2023-09-18T09:26:44;3.58;;;2.20;;
31368;SDS011;18004;48.416;10.066;2023-09-18T09:29:23;5.43;;;2.20;;
31368;SDS011;18004;48.416;10.066;2023-09-18T09:31:49;5.95;;;1.83;;
31368;SDS011;18004;48.416;10.066;2023-09-18T09:34:24;7.07;;;1.83;;
31368;SDS011;18004;48.416;10.066;2023-09-18T09:36:52;2.95;;;1.52;;
31368;SDS011;18004;48.416;10.066;2023-09-18T09:39:18;4.38;;;1.60;;
31368;SDS011;18004;48.416;10.066;2023-09-18T09:41:46;9.95;;;1.40;;
31368;SDS011;18004;48.416;10.066;2023-09-18T09:44:13;8.48;;;2.10;;
31368;SDS011;18004;48.416;10.066;2023-09-18T09:46:46;7.05;;;3.15;;
31368;SDS011;18004;48.416;10.066;2023-09-18T09:49:16;5.05;;;2.10;;
31368;SDS011;18004;48.416;10.066;2023-09-18T09:51:45;5.50;;;1.65;;
31368;SDS011;18004;48.416;10.066;2023-09-18T09:54:11;5.53;;;1.50;;
31368;SDS011;18004;48.416;10.066;2023-09-18T09:56:45;10.75;;;2.22;;
31368;SDS011;18004;48.416;10.066;2023-09-18T09:59:14;6.53;;;1.50;;
31368;SDS011;18004;48.416;10.066;2023-09-18T10:01:40;8.85;;;1.67;;
31368;SDS011;18004;48.416;10.066;2023-09-18T10:04:13;5.97;;;1.45;;
31368;SDS011;18004;48.416;10.066;2023-09-18T10:06:47;2.78;;;1.25;;
31368;SDS011;18004;48.416;10.066;2023-09-18T10:09:23;3.72;;;1.80;;
31368;SDS011;18004;48.416;10.066;2023-09-18T10:11:54;3.22;;;1.45;;
31368;SDS011;18004;48.416;10.066;2023-09-18T10:14:29;2.60;;;1.38;;
31368;SDS011;18004;48.416;10.066;2023-09-18T10:16:57;5.15;;;1.42;;
31368;SDS011;18004;48.416;10.066;2023-09-18T10:19:37;7.80;;;1.63;;
31368;SDS011;18004;48.416;10.066;2023-09-18T10:24:54;3.65;;;1.30;;
31368;SDS011;18004;48.416;10.066;2023-09-18T10:27:25;3.90;;;1.55;;
31368;SDS011;18004;48.416;10.066;2023-09-18T10:29:53;3.72;;;1.40;;
31368;SDS011;18004;48.416;10.066;2023-09-18T10:32:20;4.53;;;1.10;;
31368;SDS011;18004;48.416;10.066;2023-09-18T10:34:47;3.58;;;1.20;;
31368;SDS011;18004;48.416;10.066;2023-09-18T10:37:14;7.40;;;1.15;;
31368;SDS011;18004;48.416;10.066;2023-09-18T10:39:41;2.05;;;0.80;;
31368;SDS011;18004;48.416;10.066;2023-09-18T10:42:09;1.80;;;0.63;;
31368;SDS011;18004;48.416;10.066;2023-09-18T10:44:37;5.03;;;1.13;;
31368;SDS011;18004;48.416;10.066;2023-09-18T10:47:06;3.28;;;1.05;;
31368;SDS011;18004;48.416;10.066;2023-09-18T10:49:35;9.48;;;1.40;;
31368;SDS011;18004;48.416;10.066;2023-09-18T10:52:01;6.22;;;1.10;;
31368;SDS011;18004;48.416;10.066;2023-09-18T10:54:29;3.45;;;1.65;;
31368;SDS011;18004;48.416;10.066;2023-09-18T10:56:56;2.47;;;1.48;;
31368;SDS011;18004;48.416;10.066;2023-09-18T10:59:22;5.95;;;2.15;;
31368;SDS011;18004;48.416;10.066;2023-09-18T11:01:48;1.33;;;0.95;;
31368;SDS011;18004;48.416;10.066;2023-09-18T11:04:17;2.63;;;1.30;;
31368;SDS011;18004;48.416;10.066;2023-09-18T11:09:23;1.98;;;1.00;;
31368;SDS011;18004;48.416;10.066;2023-09-18T11:11:53;6.40;;;1.00;;
31368;SDS011;18004;48.416;10.066;2023-09-18T11:14:23;2.83;;;0.77;;
31368;SDS011;18004;48.416;10.066;2023-09-18T11:17:05;1.35;;;0.77;;
31368;SDS011;18004;48.416;10.066;2023-09-18T11:19:31;5.35;;;0.88;;
31368;SDS011;18004;48.416;10.066;2023-09-18T11:22:12;1.42;;;0.68;;
31368;SDS011;18004;48.416;10.066;2023-09-18T11:24:40;8.52;;;1.00;;
31368;SDS011;18004;48.416;10.066;2023-09-18T11:27:06;1.88;;;0.90;;
31368;SDS011;18004;48.416;10.066;2023-09-18T11:29:31;6.55;;;0.93;;
31368;SDS011;18004;48.416;10.066;2023-09-18T11:32:02;1.60;;;0.85;;
31368;SDS011;18004;48.416;10.066;2023-09-18T11:34:29;6.25;;;2.35;;
31368;SDS011;18004;48.416;10.066;2023-09-18T11:37:18;12.18;;;4.28;;
31368;SDS011;18004;48.416;10.066;2023-09-18T11:39:45;7.30;;;3.55;;
31368;SDS011;18004;48.416;10.066;2023-09-18T11:42:17;2.70;;;1.70;;
31368;SDS011;18004;48.416;10.066;2023-09-18T11:44:44;4.15;;;2.50;;
31368;SDS011;18004;48.416;10.066;2023-09-18T11:47:14;8.18;;;3.17;;
31368;SDS011;18004;48.416;10.066;2023-09-18T11:50:09;4.15;;;1.40;;
31368;SDS011;18004;48.416;10.066;2023-09-18T11:52:36;1.95;;;0.70;;
31368;SDS011;18004;48.416;10.066;2023-09-18T11:55:02;2.72;;;0.65;;
31368;SDS011;18004;48.416;10.066;2023-09-18T11:57:28;0.40;;;0.40;;
31368;SDS011;18004;48.416;10.066;2023-09-18T12:00:00;6.45;;;0.90;;
31368;SDS011;18004;48.416;10.066;2023-09-18T12:02:37;5.65;;;0.95;;
31368;SDS011;18004;48.416;10.066;2023-09-18T12:05:10;1.75;;;0.60;;
31368;SDS011;18004;48.416;10.066;2023-09-18T12:07:39;3.63;;;0.98;;
31368;SDS011;18004;48.416;10.066;2023-09-18T12:10:09;1.48;;;0.70;;
31368;SDS011;18004;48.416;10.066;2023-09-18T12:12:37;3.05;;;0.88;;
31368;SDS011;18004;48.416;10.066;2023-09-18T12:15:03;3.70;;;0.98;;
31368;SDS011;18004;48.416;10.066;2023-09-18T12:17:29;1.75;;;0.90;;
31368;SDS011;18004;48.416;10.066;2023-09-18T12:19:55;4.53;;;1.00;;
31368;SDS011;18004;48.416;10.066;2023-09-18T12:22:27;4.53;;;0.80;;
31368;SDS011;18004;48.416;10.066;2023-09-18T12:25:12;3.08;;;0.88;;
31368;SDS011;18004;48.416;10.066;2023-09-18T12:27:39;3.55;;;0.75;;
31368;SDS011;18004;48.416;10.066;2023-09-18T12:30:06;5.88;;;0.90;;
31368;SDS011;18004;48.416;10.066;2023-09-18T12:32:37;3.83;;;0.70;;
31368;SDS011;18004;48.416;10.066;2023-09-18T12:35:06;0.77;;;0.60;;
31368;SDS011;18004;48.416;10.066;2023-09-18T12:37:32;4.30;;;0.70;;
31368;SDS011;18004;48.416;10.066;2023-09-18T12:40:05;0.73;;;0.50;;
31368;SDS011;18004;48.416;10.066;2023-09-18T12:42:39;6.72;;;0.40;;
31368;SDS011;18004;48.416;10.066;2023-09-18T12:45:08;1.30;;;0.60;;
31368;SDS011;18004;48.416;10.066;2023-09-18T12:47:35;0.98;;;0.40;;
31368;SDS011;18004;48.416;10.066;2023-09-18T12:50:04;2.05;;;0.50;;
31368;SDS011;18004;48.416;10.066;2023-09-18T12:52:36;2.10;;;0.60;;
31368;SDS011;18004;48.416;10.066;2023-09-18T12:55:01;2.00;;;0.65;;
31368;SDS011;18004;48.416;10.066;2023-09-18T12:57:31;2.97;;;0.70;;
31368;SDS011;18004;48.416;10.066;2023-09-18T12:59:57;2.30;;;0.68;;
31368;SDS011;18004;48.416;10.066;2023-09-18T13:02:23;1.52;;;0.60;;
31368;SDS011;18004;48.416;10.066;2023-09-18T13:04:53;6.53;;;0.68;;
31368;SDS011;18004;48.416;10.066;2023-09-18T13:07:20;0.40;;;0.35;;
31368;SDS011;18004;48.416;10.066;2023-09-18T13:10:00;2.42;;;0.70;;
31368;SDS011;18004;48.416;10.066;2023-09-18T13:15:31;0.75;;;0.63;;
31368;SDS011;18004;48.416;10.066;2023-09-18T13:17:58;2.15;;;0.60;;
31368;SDS011;18004;48.416;10.066;2023-09-18T13:20:36;0.70;;;0.50;;
31368;SDS011;18004;48.416;10.066;2023-09-18T13:23:02;1.30;;;0.55;;
31368;SDS011;18004;48.416;10.066;2023-09-18T13:28:05;1.52;;;0.65;;
31368;SDS011;18004;48.416;10.066;2023-09-18T13:30:33;2.73;;;0.67;;
31368;SDS011;18004;48.416;10.066;2023-09-18T13:33:02;0.95;;;0.65;;
31368;SDS011;18004;48.416;10.066;2023-09-18T13:35:29;7.45;;;0.75;;
31368;SDS011;18004;48.416;10.066;2023-09-18T13:37:55;3.35;;;0.60;;
31368;SDS011;18004;48.416;10.066;2023-09-18T13:40:21;0.73;;;0.70;;
31368;SDS011;18004;48.416;10.066;2023-09-18T13:42:47;1.05;;;0.40;;
31368;SDS011;18004;48.416;10.066;2023-09-18T13:45:14;1.10;;;0.70;;
31368;SDS011;18004;48.416;10.066;2023-09-18T13:47:43;1.38;;;0.70;;
31368;SDS011;18004;48.416;10.066;2023-09-18T13:50:09;1.50;;;0.63;;
31368;SDS011;18004;48.416;10.066;2023-09-18T13:52:35;1.13;;;0.70;;
31368;SDS011;18004;48.416;10.066;2023-09-18T13:55:02;4.05;;;1.05;;
31368;SDS011;18004;48.416;10.066;2023-09-18T13:57:33;2.00;;;0.75;;
31368;SDS011;18004;48.416;10.066;2023-09-18T13:59:59;1.00;;;0.65;;
31368;SDS011;18004;48.416;10.066;2023-09-18T14:02:34;1.25;;;0.75;;
31368;SDS011;18004;48.416;10.066;2023-09-18T14:05:03;4.25;;;0.60;;
31368;SDS011;18004;48.416;10.066;2023-09-18T14:07:34;5.97;;;0.85;;
31368;SDS011;18004;48.416;10.066;2023-09-18T14:12:49;7.68;;;1.02;;
31368;SDS011;18004;48.416;10.066;2023-09-18T14:15:15;1.88;;;0.80;;
31368;SDS011;18004;48.416;10.066;2023-09-18T14:17:41;3.15;;;0.80;;
31368;SDS011;18004;48.416;10.066;2023-09-18T14:20:07;2.00;;;0.68;;
31368;SDS011;18004;48.416;10.066;2023-09-18T14:22:40;2.50;;;0.50;;
31368;SDS011;18004;48.416;10.066;2023-09-18T14:25:09;3.55;;;0.90;;
31368;SDS011;18004;48.416;10.066;2023-09-18T14:28:00;4.05;;;0.75;;
31368;SDS011;18004;48.416;10.066;2023-09-18T14:30:24;3.22;;;0.90;;
31368;SDS011;18004;48.416;10.066;2023-09-18T14:32:55;2.50;;;1.00;;
31368;SDS011;18004;48.416;10.066;2023-09-18T14:35:28;2.33;;;0.80;;
31368;SDS011;18004;48.416;10.066;2023-09-18T14:37:54;1.60;;;0.77;;
31368;SDS011;18004;48.416;10.066;2023-09-18T14:40:28;1.90;;;0.63;;
31368;SDS011;18004;48.416;10.066;2023-09-18T14:43:06;1.65;;;1.00;;
31368;SDS011;18004;48.416;10.066;2023-09-18T14:45:32;1.05;;;0.73;;
31368;SDS011;18004;48.416;10.066;2023-09-18T14:48:06;0.80;;;0.77;;
31368;SDS011;18004;48.416;10.066;2023-09-18T14:50:35;5.53;;;1.10;;
31368;SDS011;18004;48.416;10.066;2023-09-18T14:53:17;2.42;;;0.80;;
31368;SDS011;18004;48.416;10.066;2023-09-18T14:55:46;1.70;;;0.70;;
31368;SDS011;18004;48.416;10.066;2023-09-18T14:58:17;1.70;;;0.90;;
31368;SDS011;18004;48.416;10.066;2023-09-18T15:00:49;1.10;;;0.70;;
31368;SDS011;18004;48.416;10.066;2023-09-18T15:03:24;1.45;;;0.70;;